createdAt,value
2022-11-27T00:00:02.540Z,2.63
2022-11-27T00:02:40.920Z,2.40
2022-11-27T00:05:10.802Z,2.50
2022-11-27T00:07:38.769Z,2.70
2022-11-27T00:10:07.964Z,2.90
2022-11-27T00:12:36.372Z,2.60
2022-11-27T00:15:04.321Z,2.60
2022-11-27T00:17:32.255Z,2.53
2022-11-27T00:20:00.192Z,2.80
2022-11-27T00:22:29.457Z,2.80
2022-11-27T00:24:57.322Z,2.57
2022-11-27T00:27:26.109Z,2.60
2022-11-27T00:29:54.243Z,2.43
2022-11-27T00:32:22.114Z,2.60
2022-11-27T00:34:49.979Z,2.50
2022-11-27T00:37:17.854Z,2.57
2022-11-27T00:39:48.144Z,2.40
2022-11-27T00:42:16.074Z,2.37
2022-11-27T00:44:44.088Z,2.70
2022-11-27T00:47:11.969Z,2.70
2022-11-27T00:49:39.867Z,2.60
2022-11-27T00:52:07.748Z,2.50
2022-11-27T00:54:35.714Z,2.30
2022-11-27T00:57:05.503Z,2.50
2022-11-27T00:59:33.383Z,2.20
2022-11-27T01:02:01.323Z,2.33
2022-11-27T01:04:30.257Z,2.40
2022-11-27T01:06:58.127Z,2.23
2022-11-27T01:09:26.009Z,2.70
2022-11-27T01:11:53.901Z,2.43
2022-11-27T01:14:23.155Z,2.50
2022-11-27T01:16:51.079Z,2.20
2022-11-27T01:19:19.380Z,2.40
2022-11-27T01:21:47.280Z,2.53
2022-11-27T01:24:15.862Z,2.50
2022-11-27T01:26:43.942Z,2.80
2022-11-27T01:29:12.326Z,2.47
2022-11-27T01:31:41.741Z,2.30
2022-11-27T01:34:12.563Z,2.50
2022-11-27T01:36:40.472Z,2.33
2022-11-27T01:39:08.494Z,2.20
2022-11-27T01:41:37.246Z,2.40
2022-11-27T01:44:20.603Z,2.53
2022-11-27T01:46:50.171Z,2.57
2022-11-27T01:49:25.987Z,2.67
2022-11-27T01:51:55.796Z,2.60
2022-11-27T01:54:25.393Z,2.60
2022-11-27T01:56:56.313Z,2.57
2022-11-27T01:59:25.968Z,2.60
2022-11-27T02:01:55.299Z,2.60
2022-11-27T02:04:23.232Z,2.50
2022-11-27T02:06:51.121Z,2.30
2022-11-27T02:09:19.028Z,2.10
2022-11-27T02:11:51.261Z,2.37
2022-11-27T02:14:23.123Z,2.33
2022-11-27T02:16:54.209Z,1.97
2022-11-27T02:19:28.006Z,2.27
2022-11-27T02:21:57.369Z,2.40
2022-11-27T02:24:34.751Z,2.30
2022-11-27T02:27:13.442Z,2.63
2022-11-27T02:29:42.689Z,2.60
2022-11-27T02:32:12.141Z,2.13
2022-11-27T02:34:44.480Z,2.23
2022-11-27T02:37:14.488Z,2.27
2022-11-27T02:39:44.138Z,2.30
2022-11-27T02:42:14.977Z,2.40
2022-11-27T02:44:47.175Z,2.33
2022-11-27T02:47:15.596Z,2.50
2022-11-27T02:49:43.756Z,2.40
2022-11-27T02:52:12.652Z,2.30
2022-11-27T02:54:40.686Z,2.50
2022-11-27T02:57:08.690Z,2.40
2022-11-27T02:59:36.560Z,2.60
2022-11-27T03:02:11.249Z,2.27
2022-11-27T03:04:43.435Z,2.20
2022-11-27T03:07:13.509Z,2.20
2022-11-27T03:09:43.471Z,2.23
2022-11-27T03:12:11.630Z,2.20
2022-11-27T03:14:42.757Z,1.87
2022-11-27T03:17:17.332Z,2.20
2022-11-27T03:19:49.188Z,2.10
2022-11-27T03:22:17.075Z,2.10
2022-11-27T03:24:45.022Z,2.40
2022-11-27T03:27:13.827Z,2.23
2022-11-27T03:29:44.197Z,2.17
2022-11-27T03:32:13.458Z,2.17
2022-11-27T03:34:41.566Z,2.10
2022-11-27T03:37:09.657Z,1.90
2022-11-27T03:39:37.543Z,2.13
2022-11-27T03:42:10.650Z,2.20
2022-11-27T03:44:42.556Z,2.13
2022-11-27T03:47:16.760Z,2.30
2022-11-27T03:49:53.130Z,2.00
2022-11-27T03:52:24.135Z,2.23
2022-11-27T03:54:57.160Z,2.17
2022-11-27T03:57:29.296Z,2.10
2022-11-27T03:59:57.850Z,2.10
2022-11-27T04:02:31.727Z,2.20
2022-11-27T04:04:59.659Z,2.30
2022-11-27T04:07:27.625Z,2.10
2022-11-27T04:09:55.608Z,2.20
2022-11-27T04:12:23.476Z,2.17
2022-11-27T04:14:51.351Z,2.10
2022-11-27T04:17:19.248Z,2.30
2022-11-27T04:19:48.572Z,2.30
2022-11-27T04:22:16.469Z,2.20
2022-11-27T04:24:44.382Z,2.40
2022-11-27T04:27:12.285Z,3.40
2022-11-27T04:29:40.160Z,3.70
2022-11-27T04:32:08.074Z,3.77
2022-11-27T04:34:35.968Z,4.40
2022-11-27T04:37:05.218Z,4.30
2022-11-27T04:39:33.108Z,4.47
2022-11-27T04:42:01.064Z,4.40
2022-11-27T04:44:28.959Z,5.80
2022-11-27T04:46:56.912Z,5.43
2022-11-27T04:49:24.857Z,5.50
2022-11-27T04:51:52.744Z,5.20
2022-11-27T04:54:22.163Z,4.70
2022-11-27T04:56:50.152Z,5.83
2022-11-27T04:59:18.043Z,6.60
2022-11-27T05:01:45.898Z,5.93
2022-11-27T05:04:13.785Z,5.90
2022-11-27T05:06:41.692Z,6.40
2022-11-27T05:09:09.608Z,6.07
2022-11-27T05:11:38.897Z,6.60
2022-11-27T05:14:16.798Z,7.10
2022-11-27T05:16:45.731Z,7.50
2022-11-27T05:19:14.201Z,6.80
2022-11-27T05:21:42.254Z,6.83
2022-11-27T05:24:10.239Z,6.37
2022-11-27T05:26:39.974Z,7.67
2022-11-27T05:29:07.962Z,7.43
2022-11-27T05:31:35.986Z,8.10
2022-11-27T05:34:04.084Z,7.63
2022-11-27T05:36:32.080Z,6.57
2022-11-27T05:39:00.742Z,6.97
2022-11-27T05:41:28.712Z,7.57
2022-11-27T05:43:57.951Z,8.03
2022-11-27T05:46:25.926Z,6.57
2022-11-27T05:48:53.901Z,7.10
2022-11-27T05:51:21.825Z,6.77
2022-11-27T05:53:49.758Z,6.93
2022-11-27T05:56:18.636Z,7.43
2022-11-27T05:58:47.849Z,7.40
2022-11-27T06:01:17.488Z,8.07
2022-11-27T06:03:45.546Z,7.57
2022-11-27T06:06:14.455Z,7.97
2022-11-27T06:08:42.372Z,7.33
2022-11-27T06:11:10.328Z,7.17
2022-11-27T06:13:38.415Z,7.83
2022-11-27T06:16:07.896Z,7.17
2022-11-27T06:18:37.280Z,7.90
2022-11-27T06:21:08.074Z,6.80
2022-11-27T06:23:36.036Z,7.10
2022-11-27T06:26:14.457Z,6.87
2022-11-27T06:28:42.433Z,8.17
2022-11-27T06:31:15.965Z,8.20
2022-11-27T06:33:46.920Z,7.20
2022-11-27T06:36:14.880Z,7.30
2022-11-27T06:38:42.901Z,6.97
2022-11-27T06:41:12.186Z,7.80
2022-11-27T06:43:40.118Z,7.67
2022-11-27T06:46:09.017Z,7.93
2022-11-27T06:48:37.007Z,7.13
2022-11-27T06:51:07.551Z,7.13
2022-11-27T06:53:36.664Z,7.30
2022-11-27T06:56:04.759Z,6.83
2022-11-27T06:58:32.665Z,7.83
2022-11-27T07:01:00.740Z,7.17
2022-11-27T07:03:28.646Z,6.97
2022-11-27T07:05:56.617Z,7.03
2022-11-27T07:08:25.868Z,6.63
2022-11-27T07:10:53.769Z,7.20
2022-11-27T07:13:21.710Z,7.10
2022-11-27T07:15:49.611Z,7.40
2022-11-27T07:18:17.509Z,6.60
2022-11-27T07:20:56.279Z,6.60
2022-11-27T07:23:26.026Z,6.63
2022-11-27T07:25:53.945Z,6.47
2022-11-27T07:28:21.978Z,6.87
2022-11-27T07:30:55.546Z,7.17
2022-11-27T07:33:23.535Z,7.07
2022-11-27T07:35:51.453Z,7.03
2022-11-27T07:38:19.348Z,6.40
2022-11-27T07:40:48.606Z,6.70
2022-11-27T07:43:16.461Z,6.87
2022-11-27T07:45:44.385Z,6.80
2022-11-27T07:48:12.320Z,7.50
2022-11-27T07:50:40.615Z,6.37
2022-11-27T07:53:08.558Z,6.23
2022-11-27T07:55:38.861Z,6.00
2022-11-27T07:58:08.157Z,6.43
2022-11-27T08:00:36.177Z,6.57
2022-11-27T08:03:04.218Z,6.37
2022-11-27T08:05:34.229Z,6.10
2022-11-27T08:08:04.227Z,6.23
2022-11-27T08:10:32.496Z,6.63
2022-11-27T08:13:00.442Z,6.23
2022-11-27T08:15:29.757Z,6.03
2022-11-27T08:17:57.686Z,5.87
2022-11-27T08:20:25.746Z,5.97
2022-11-27T08:22:55.954Z,6.13
2022-11-27T08:25:27.599Z,6.37
2022-11-27T08:27:55.488Z,5.80
2022-11-27T08:30:23.682Z,6.20
2022-11-27T08:32:52.974Z,5.87
2022-11-27T08:35:22.502Z,5.73
2022-11-27T08:37:50.537Z,6.43
2022-11-27T08:40:18.552Z,6.13
2022-11-27T08:42:46.464Z,6.17
2022-11-27T08:45:14.358Z,6.23
2022-11-27T08:47:43.378Z,5.67
2022-11-27T08:50:12.742Z,5.73
2022-11-27T08:52:40.671Z,5.90
2022-11-27T08:55:09.587Z,5.47
2022-11-27T08:57:37.869Z,5.67
2022-11-27T09:00:08.088Z,6.17
2022-11-27T09:02:36.080Z,5.87
2022-11-27T09:05:06.357Z,6.13
2022-11-27T09:07:35.670Z,5.33
2022-11-27T09:10:03.691Z,5.30
2022-11-27T09:12:31.654Z,5.53
2022-11-27T09:14:59.578Z,5.90
2022-11-27T09:17:27.491Z,5.00
2022-11-27T09:19:55.405Z,5.67
2022-11-27T09:22:23.287Z,5.70
2022-11-27T09:24:52.524Z,5.23
2022-11-27T09:27:20.446Z,5.77
2022-11-27T09:29:49.530Z,5.27
2022-11-27T09:32:17.516Z,5.73
2022-11-27T09:34:45.524Z,5.03
2022-11-27T09:37:13.460Z,5.23
2022-11-27T09:39:41.345Z,5.23
2022-11-27T09:42:13.903Z,5.00
2022-11-27T09:44:45.235Z,5.87
2022-11-27T09:47:16.902Z,5.00
2022-11-27T09:49:46.798Z,5.23
2022-11-27T09:52:18.792Z,5.43
2022-11-27T09:54:52.594Z,5.13
2022-11-27T09:57:25.500Z,5.37
2022-11-27T09:59:53.690Z,5.03
2022-11-27T10:02:25.769Z,5.67
2022-11-27T10:05:23.942Z,5.77
2022-11-27T10:07:47.395Z,5.20
2022-11-27T10:10:29.091Z,5.07
2022-11-27T10:13:01.314Z,5.10
2022-11-27T10:15:34.056Z,4.87
2022-11-27T10:18:04.066Z,4.90
2022-11-27T10:20:35.299Z,5.23
2022-11-27T10:23:06.124Z,4.90
2022-11-27T10:25:35.799Z,4.87
2022-11-27T10:28:14.782Z,4.83
2022-11-27T10:30:46.543Z,4.97
2022-11-27T10:33:18.822Z,4.97
2022-11-27T10:35:47.791Z,5.07
2022-11-27T10:38:18.398Z,5.20
2022-11-27T10:40:47.782Z,4.67
2022-11-27T10:43:19.352Z,5.00
2022-11-27T10:45:48.882Z,5.00
2022-11-27T10:48:16.869Z,5.00
2022-11-27T10:50:45.840Z,5.27
2022-11-27T10:53:17.334Z,4.30
2022-11-27T10:56:15.024Z,5.03
2022-11-27T10:58:45.693Z,5.13
2022-11-27T11:01:16.730Z,4.87
2022-11-27T11:03:44.697Z,4.83
2022-11-27T11:06:21.977Z,4.37
2022-11-27T11:09:01.577Z,4.30
2022-11-27T11:11:29.609Z,4.37
2022-11-27T11:13:58.895Z,4.80
2022-11-27T11:16:34.792Z,4.33
2022-11-27T11:19:03.446Z,4.37
2022-11-27T11:21:32.723Z,4.67
2022-11-27T11:24:01.726Z,4.40
2022-11-27T11:26:30.681Z,4.63
2022-11-27T11:29:01.061Z,4.20
2022-11-27T11:31:30.984Z,4.50
2022-11-27T11:33:59.901Z,4.30
2022-11-27T11:36:27.930Z,4.87
2022-11-27T11:38:55.848Z,4.47
2022-11-27T11:41:24.476Z,4.10
2022-11-27T11:44:01.222Z,4.30
2022-11-27T11:46:30.794Z,4.20
2022-11-27T11:49:01.049Z,4.57
2022-11-27T11:51:47.990Z,3.93
2022-11-27T11:54:25.195Z,4.03
2022-11-27T11:56:53.416Z,3.80
2022-11-27T11:59:26.994Z,3.83
2022-11-27T12:02:07.653Z,4.10
2022-11-27T12:04:54.207Z,4.00
2022-11-27T12:07:27.740Z,4.10
2022-11-27T12:09:58.482Z,3.63
2022-11-27T12:12:34.864Z,3.77
2022-11-27T12:15:05.713Z,4.20
2022-11-27T12:17:43.498Z,3.93
2022-11-27T12:20:19.647Z,4.20
2022-11-27T12:23:31.297Z,4.27
2022-11-27T12:26:04.980Z,4.50
2022-11-27T12:28:44.930Z,4.17
2022-11-27T12:31:18.377Z,3.87
2022-11-27T12:33:56.449Z,4.00
2022-11-27T12:36:27.869Z,3.50
2022-11-27T12:39:04.854Z,3.70
2022-11-27T12:41:47.094Z,3.77
2022-11-27T12:44:19.077Z,3.43
2022-11-27T12:46:52.529Z,3.90
2022-11-27T12:49:21.694Z,4.17
2022-11-27T12:51:50.680Z,3.80
2022-11-27T12:54:21.980Z,4.20
2022-11-27T12:56:51.887Z,3.97
2022-11-27T12:59:21.948Z,3.57
2022-11-27T13:01:53.504Z,4.20
2022-11-27T13:04:24.432Z,3.67
2022-11-27T13:06:56.218Z,3.90
2022-11-27T13:09:28.454Z,4.00
2022-11-27T13:11:56.354Z,4.30
2022-11-27T13:14:25.564Z,3.97
2022-11-27T13:16:56.783Z,4.07
2022-11-27T13:19:26.413Z,6.53
2022-11-27T13:21:54.569Z,8.67
2022-11-27T13:24:22.610Z,11.97
2022-11-27T13:27:00.783Z,9.37
2022-11-27T13:29:29.675Z,8.53
2022-11-27T13:32:00.654Z,6.10
2022-11-27T13:34:29.674Z,5.07
2022-11-27T13:36:59.196Z,5.50
2022-11-27T13:39:29.655Z,4.90
2022-11-27T13:42:02.792Z,4.90
2022-11-27T13:44:30.754Z,4.60
2022-11-27T13:47:01.300Z,4.40
2022-11-27T13:49:31.556Z,4.90
2022-11-27T13:52:06.876Z,4.17
2022-11-27T13:54:34.763Z,4.60
2022-11-27T13:57:15.816Z,4.33
2022-11-27T13:59:55.176Z,4.40
2022-11-27T14:02:24.519Z,4.40
2022-11-27T14:04:56.354Z,4.17
2022-11-27T14:07:24.696Z,4.97
2022-11-27T14:09:53.642Z,4.83
2022-11-27T14:12:23.368Z,4.73
2022-11-27T14:15:05.795Z,3.93
2022-11-27T14:17:40.390Z,4.40
2022-11-27T14:20:21.748Z,4.27
2022-11-27T14:25:38.481Z,4.07
2022-11-27T14:28:10.766Z,5.00
2022-11-27T14:30:41.858Z,4.70
2022-11-27T14:33:19.338Z,4.27
2022-11-27T14:35:50.023Z,4.40
2022-11-27T14:38:17.943Z,4.23
2022-11-27T14:40:46.203Z,4.70
2022-11-27T14:43:16.643Z,4.33
2022-11-27T14:45:46.075Z,3.83
2022-11-27T14:48:22.096Z,4.40
2022-11-27T14:50:50.150Z,5.17
2022-11-27T14:53:18.808Z,4.13
2022-11-27T14:55:48.399Z,4.97
2022-11-27T14:58:18.277Z,4.23
2022-11-27T15:00:52.773Z,4.03
2022-11-27T15:03:22.324Z,3.83
2022-11-27T15:05:55.366Z,3.77
2022-11-27T15:08:23.348Z,4.50
2022-11-27T15:10:54.041Z,4.13
2022-11-27T15:13:23.901Z,3.70
2022-11-27T15:15:57.218Z,3.50
2022-11-27T15:18:26.563Z,3.80
2022-11-27T15:20:54.637Z,3.63
2022-11-27T15:23:24.325Z,3.80
2022-11-27T15:25:53.512Z,3.80
2022-11-27T15:28:29.035Z,3.60
2022-11-27T15:30:57.200Z,3.40
2022-11-27T15:33:30.411Z,3.40
2022-11-27T15:36:16.494Z,3.20
2022-11-27T15:38:45.438Z,3.00
2022-11-27T15:41:23.900Z,3.30
2022-11-27T15:43:51.972Z,3.37
2022-11-27T15:46:23.885Z,3.17
2022-11-27T15:48:53.303Z,3.33
2022-11-27T15:51:21.233Z,3.43
2022-11-27T15:53:49.272Z,2.87
2022-11-27T15:56:17.320Z,3.00
2022-11-27T15:58:45.338Z,3.30
2022-11-27T16:01:13.421Z,3.00
2022-11-27T16:03:41.379Z,2.80
2022-11-27T16:06:10.779Z,2.93
2022-11-27T16:08:38.737Z,2.60
2022-11-27T16:11:08.063Z,2.87
2022-11-27T16:13:35.973Z,2.73
2022-11-27T16:16:03.913Z,2.80
2022-11-27T16:18:32.731Z,2.70
2022-11-27T16:21:03.721Z,2.63
2022-11-27T16:23:33.170Z,2.60
2022-11-27T16:26:03.120Z,2.87
2022-11-27T16:28:31.261Z,2.37
2022-11-27T16:30:59.973Z,3.03
2022-11-27T16:33:28.054Z,2.30
2022-11-27T16:35:56.234Z,2.40
2022-11-27T16:38:24.579Z,2.83
2022-11-27T16:40:54.095Z,2.20
2022-11-27T16:43:22.598Z,2.27
2022-11-27T16:45:50.749Z,2.70
2022-11-27T16:48:18.690Z,2.40
2022-11-27T16:50:46.645Z,2.30
2022-11-27T16:53:14.579Z,2.40
2022-11-27T16:55:43.187Z,2.17
2022-11-27T16:58:12.483Z,2.27
2022-11-27T17:00:40.531Z,2.20
2022-11-27T17:03:08.763Z,2.40
2022-11-27T17:05:38.147Z,2.37
2022-11-27T17:08:06.435Z,2.40
2022-11-27T17:10:34.411Z,2.40
2022-11-27T17:13:02.344Z,2.60
2022-11-27T17:15:35.205Z,2.90
2022-11-27T17:18:07.162Z,2.50
2022-11-27T17:20:35.092Z,2.57
2022-11-27T17:23:03.631Z,2.43
2022-11-27T17:25:31.613Z,2.20
2022-11-27T17:27:59.977Z,2.03
2022-11-27T17:30:29.216Z,2.37
2022-11-27T17:32:59.057Z,2.50
2022-11-27T17:35:27.097Z,2.03
2022-11-27T17:37:55.338Z,2.03
2022-11-27T17:40:23.244Z,2.07
2022-11-27T17:42:51.149Z,3.00
2022-11-27T17:45:19.205Z,2.77
2022-11-27T17:47:47.124Z,2.50
2022-11-27T17:50:16.551Z,2.60
2022-11-27T17:52:44.899Z,2.57
2022-11-27T17:55:12.992Z,2.47
2022-11-27T17:57:41.820Z,2.40
2022-11-27T18:00:11.023Z,2.47
2022-11-27T18:02:42.004Z,2.20
2022-11-27T18:05:10.591Z,2.40
2022-11-27T18:07:40.157Z,2.40
2022-11-27T18:10:09.404Z,2.40
2022-11-27T18:12:37.393Z,2.33
2022-11-27T18:15:06.263Z,2.40
2022-11-27T18:17:35.443Z,2.13
2022-11-27T18:20:03.801Z,2.57
2022-11-27T18:22:31.731Z,2.20
2022-11-27T18:25:00.991Z,2.00
2022-11-27T18:27:28.885Z,2.00
2022-11-27T18:29:56.823Z,2.10
2022-11-27T18:32:24.738Z,2.17
2022-11-27T18:34:52.823Z,2.20
2022-11-27T18:37:20.954Z,2.03
2022-11-27T18:39:49.205Z,2.00
2022-11-27T18:42:18.457Z,2.20
2022-11-27T18:44:46.348Z,1.80
2022-11-27T18:47:14.490Z,2.20
2022-11-27T18:49:44.588Z,1.83
2022-11-27T18:52:13.459Z,2.10
2022-11-27T18:54:41.981Z,2.00
2022-11-27T18:57:11.049Z,1.90
2022-11-27T18:59:41.271Z,2.17
2022-11-27T19:02:10.573Z,2.20
2022-11-27T19:04:38.795Z,1.87
2022-11-27T19:07:07.020Z,2.03
2022-11-27T19:09:35.000Z,2.00
2022-11-27T19:12:03.272Z,1.80
2022-11-27T19:14:31.974Z,2.00
2022-11-27T19:17:01.364Z,2.00
2022-11-27T19:22:20.541Z,1.90
2022-11-27T19:24:48.667Z,1.57
2022-11-27T19:27:16.692Z,1.60
2022-11-27T19:29:44.964Z,2.17
2022-11-27T19:32:14.732Z,1.80
2022-11-27T19:34:42.900Z,2.00
2022-11-27T19:37:11.045Z,1.83
2022-11-27T19:39:39.544Z,1.70
2022-11-27T19:42:07.600Z,1.73
2022-11-27T19:44:35.828Z,1.90
2022-11-27T19:47:04.270Z,1.70
2022-11-27T19:49:33.579Z,1.70
2022-11-27T19:52:01.465Z,1.90
2022-11-27T19:54:30.120Z,1.73
2022-11-27T19:56:58.368Z,1.73
2022-11-27T19:59:26.956Z,1.60
2022-11-27T20:01:56.408Z,1.73
2022-11-27T20:04:29.216Z,1.77
2022-11-27T20:06:58.641Z,1.70
2022-11-27T20:09:26.525Z,1.60
2022-11-27T20:11:54.657Z,1.90
2022-11-27T20:14:22.654Z,2.00
2022-11-27T20:16:50.898Z,1.73
2022-11-27T20:19:18.942Z,1.90
2022-11-27T20:21:46.907Z,1.97
2022-11-27T20:24:16.205Z,1.63
2022-11-27T20:26:45.245Z,1.67
2022-11-27T20:29:13.920Z,1.60
2022-11-27T20:31:43.687Z,1.90
2022-11-27T20:34:14.324Z,1.83
2022-11-27T20:36:42.303Z,1.83
2022-11-27T20:39:15.034Z,1.90
2022-11-27T20:41:47.096Z,1.90
2022-11-27T20:44:15.791Z,1.97
2022-11-27T20:46:43.738Z,1.83
2022-11-27T20:49:12.192Z,1.80
2022-11-27T20:51:40.477Z,1.80
2022-11-27T20:54:09.254Z,1.93
2022-11-27T20:56:37.466Z,1.60
2022-11-27T20:59:07.876Z,1.63
2022-11-27T21:01:37.051Z,1.73
2022-11-27T21:04:09.173Z,1.60
2022-11-27T21:06:43.226Z,1.70
2022-11-27T21:09:13.619Z,1.53
2022-11-27T21:11:41.731Z,1.53
2022-11-27T21:14:12.793Z,1.70
2022-11-27T21:16:42.487Z,1.80
2022-11-27T21:19:14.623Z,1.90
2022-11-27T21:21:42.749Z,1.77
2022-11-27T21:24:11.380Z,1.83
2022-11-27T21:26:39.979Z,1.77
2022-11-27T21:29:08.286Z,2.07
2022-11-27T21:31:41.640Z,1.80
2022-11-27T21:34:12.875Z,2.00
2022-11-27T21:36:40.933Z,2.27
2022-11-27T21:39:09.578Z,1.77
2022-11-27T21:41:37.538Z,1.50
2022-11-27T21:44:06.117Z,1.80
2022-11-27T21:46:34.931Z,1.83
2022-11-27T21:49:07.594Z,2.00
2022-11-27T21:51:35.855Z,2.13
2022-11-27T21:54:07.343Z,1.70
2022-11-27T21:56:37.668Z,1.80
2022-11-27T21:59:05.817Z,1.73
2022-11-27T22:01:33.800Z,1.63
2022-11-27T22:04:02.599Z,2.00
2022-11-27T22:06:36.766Z,1.80
2022-11-27T22:09:06.003Z,2.00
2022-11-27T22:11:35.405Z,1.90
2022-11-27T22:14:04.317Z,1.73
2022-11-27T22:16:33.412Z,1.90
2022-11-27T22:19:01.698Z,1.80
2022-11-27T22:21:31.461Z,1.90
2022-11-27T22:24:00.990Z,1.77
2022-11-27T22:26:29.105Z,1.70
2022-11-27T22:28:59.294Z,1.77
2022-11-27T22:31:29.544Z,1.70
2022-11-27T22:33:57.910Z,1.67
2022-11-27T22:36:27.301Z,1.70
2022-11-27T22:38:56.761Z,1.77
2022-11-27T22:41:25.798Z,1.90
2022-11-27T22:43:54.010Z,1.70
2022-11-27T22:46:22.951Z,1.67
2022-11-27T22:48:54.648Z,2.00
2022-11-27T22:51:24.172Z,1.87
2022-11-27T22:53:52.183Z,1.90
2022-11-27T22:56:21.444Z,1.57
2022-11-27T22:58:49.334Z,1.80
2022-11-27T23:01:18.424Z,1.90
2022-11-27T23:03:46.566Z,1.80
2022-11-27T23:06:14.959Z,2.00
2022-11-27T23:08:44.081Z,1.80
2022-11-27T23:11:12.336Z,1.63
2022-11-27T23:13:46.336Z,1.50
2022-11-27T23:16:17.374Z,1.80
2022-11-27T23:18:45.448Z,1.70
2022-11-27T23:21:14.623Z,1.60
2022-11-27T23:23:42.600Z,2.00
2022-11-27T23:26:17.486Z,1.90
2022-11-27T23:28:47.266Z,1.87
2022-11-27T23:31:29.410Z,2.00
2022-11-27T23:33:58.743Z,1.80
2022-11-27T23:36:26.628Z,1.87
2022-11-27T23:38:54.555Z,1.80
2022-11-27T23:41:24.375Z,1.80
2022-11-27T23:43:53.856Z,1.67
2022-11-27T23:46:22.682Z,1.90
2022-11-27T23:48:50.909Z,1.70
2022-11-27T23:51:19.840Z,2.10
2022-11-27T23:53:47.799Z,1.70
2022-11-27T23:56:16.742Z,1.80
2022-11-27T23:58:47.226Z,1.80
